sensor_id;sensor_type;location;lat;lon;timestamp;pressure;altitude;pressure_sealevel;temperature;humidity
56825;BME280;42705;50.326;18.772;2023-07-13T00:04:56;98146.51;;;20.62;66.56
56825;BME280;42705;50.326;18.772;2023-07-13T00:10:19;98158.14;;;20.55;66.45
56825;BME280;42705;50.326;18.772;2023-07-13T00:15:41;98164.40;;;20.53;66.55
56825;BME280;42705;50.326;18.772;2023-07-13T00:21:03;98153.35;;;20.52;66.40
56825;BME280;42705;50.326;18.772;2023-07-13T00:26:28;98144.27;;;20.59;66.74
56825;BME280;42705;50.326;18.772;2023-07-13T00:31:50;98131.37;;;20.75;66.83
56825;BME280;42705;50.326;18.772;2023-07-13T00:37:12;98136.95;;;20.92;66.82
56825;BME280;42705;50.326;18.772;2023-07-13T00:42:34;98125.73;;;21.03;66.51
56825;BME280;42705;50.326;18.772;2023-07-13T00:47:56;98122.66;;;21.09;66.39
56825;BME280;42705;50.326;18.772;2023-07-13T00:53:19;98107.81;;;21.12;66.26
56825;BME280;42705;50.326;18.772;2023-07-13T00:58:42;98110.73;;;21.13;66.18
56825;BME280;42705;50.326;18.772;2023-07-13T01:04:04;98116.27;;;21.18;66.41
56825;BME280;42705;50.326;18.772;2023-07-13T01:09:29;98136.64;;;21.23;66.27
56825;BME280;42705;50.326;18.772;2023-07-13T01:14:56;98128.30;;;21.31;66.39
56825;BME280;42705;50.326;18.772;2023-07-13T01:20:19;98113.83;;;21.36;66.45
56825;BME280;42705;50.326;18.772;2023-07-13T01:25:40;98108.86;;;21.36;66.20
56825;BME280;42705;50.326;18.772;2023-07-13T01:31:03;98131.77;;;21.31;66.06
56825;BME280;42705;50.326;18.772;2023-07-13T01:36:25;98136.70;;;21.22;66.10
56825;BME280;42705;50.326;18.772;2023-07-13T01:41:47;98186.27;;;20.94;65.68
56825;BME280;42705;50.326;18.772;2023-07-13T01:47:10;98178.80;;;20.42;66.20
56825;BME280;42705;50.326;18.772;2023-07-13T01:52:32;98145.15;;;20.16;66.97
56825;BME280;42705;50.326;18.772;2023-07-13T01:57:54;98102.77;;;20.05;67.52
56825;BME280;42705;50.326;18.772;2023-07-13T02:03:16;98044.45;;;20.21;67.97
56825;BME280;42705;50.326;18.772;2023-07-13T02:08:40;97990.27;;;20.37;68.32
56825;BME280;42705;50.326;18.772;2023-07-13T02:14:03;98008.86;;;20.49;68.29
56825;BME280;42705;50.326;18.772;2023-07-13T02:19:25;98002.94;;;20.57;68.32
56825;BME280;42705;50.326;18.772;2023-07-13T02:24:47;98032.91;;;20.61;68.32
56825;BME280;42705;50.326;18.772;2023-07-13T02:30:10;98044.25;;;20.60;68.29
56825;BME280;42705;50.326;18.772;2023-07-13T02:35:33;98034.02;;;20.56;68.54
56825;BME280;42705;50.326;18.772;2023-07-13T02:40:55;98034.45;;;20.59;68.90
56825;BME280;42705;50.326;18.772;2023-07-13T02:46:17;98031.25;;;20.67;68.93
56825;BME280;42705;50.326;18.772;2023-07-13T02:51:41;98031.05;;;20.76;68.90
56825;BME280;42705;50.326;18.772;2023-07-13T02:57:04;98040.72;;;20.83;68.83
56825;BME280;42705;50.326;18.772;2023-07-13T03:02:26;98062.47;;;20.81;68.57
56825;BME280;42705;50.326;18.772;2023-07-13T03:07:49;98091.62;;;20.74;68.46
56825;BME280;42705;50.326;18.772;2023-07-13T03:13:12;98108.38;;;20.64;68.39
56825;BME280;42705;50.326;18.772;2023-07-13T03:18:35;98111.80;;;20.47;68.27
56825;BME280;42705;50.326;18.772;2023-07-13T03:23:59;98109.59;;;20.45;68.77
56825;BME280;42705;50.326;18.772;2023-07-13T03:29:21;98115.00;;;20.59;68.94
56825;BME280;42705;50.326;18.772;2023-07-13T03:34:43;98113.09;;;20.70;68.92
56825;BME280;42705;50.326;18.772;2023-07-13T03:40:06;98117.06;;;20.80;68.95
56825;BME280;42705;50.326;18.772;2023-07-13T03:45:31;98129.04;;;20.87;68.64
56825;BME280;42705;50.326;18.772;2023-07-13T03:50:52;98135.49;;;20.89;68.64
56825;BME280;42705;50.326;18.772;2023-07-13T03:56:15;98140.92;;;20.96;68.81
56825;BME280;42705;50.326;18.772;2023-07-13T04:01:39;98153.23;;;21.03;68.67
56825;BME280;42705;50.326;18.772;2023-07-13T04:07:01;98158.65;;;21.05;68.59
56825;BME280;42705;50.326;18.772;2023-07-13T04:12:23;98168.46;;;21.09;68.63
56825;BME280;42705;50.326;18.772;2023-07-13T04:17:45;98176.42;;;21.13;68.54
56825;BME280;42705;50.326;18.772;2023-07-13T04:23:06;98167.10;;;21.21;68.50
56825;BME280;42705;50.326;18.772;2023-07-13T04:28:28;98156.22;;;21.34;68.34
56825;BME280;42705;50.326;18.772;2023-07-13T04:33:50;98138.68;;;21.46;68.22
56825;BME280;42705;50.326;18.772;2023-07-13T04:39:13;98125.58;;;21.55;68.10
56825;BME280;42705;50.326;18.772;2023-07-13T04:44:35;98131.24;;;21.67;68.16
56825;BME280;42705;50.326;18.772;2023-07-13T04:49:57;98130.71;;;21.76;68.09
56825;BME280;42705;50.326;18.772;2023-07-13T04:55:19;98126.86;;;21.86;68.18
56825;BME280;42705;50.326;18.772;2023-07-13T05:00:42;98129.09;;;21.98;67.92
56825;BME280;42705;50.326;18.772;2023-07-13T05:06:06;98127.58;;;22.11;67.99
56825;BME280;42705;50.326;18.772;2023-07-13T05:11:28;98130.35;;;22.23;67.73
56825;BME280;42705;50.326;18.772;2023-07-13T05:16:50;98120.89;;;22.28;67.30
56825;BME280;42705;50.326;18.772;2023-07-13T05:22:12;98116.89;;;22.37;67.21
56825;BME280;42705;50.326;18.772;2023-07-13T05:27:35;98115.80;;;22.52;67.25
56825;BME280;42705;50.326;18.772;2023-07-13T05:32:57;98116.75;;;22.68;67.00
56825;BME280;42705;50.326;18.772;2023-07-13T05:38:19;98126.20;;;22.88;66.99
56825;BME280;42705;50.326;18.772;2023-07-13T05:43:41;98126.32;;;23.07;66.65
56825;BME280;42705;50.326;18.772;2023-07-13T05:49:03;98125.02;;;23.19;66.07
56825;BME280;42705;50.326;18.772;2023-07-13T05:54:26;98116.49;;;23.24;65.49
56825;BME280;42705;50.326;18.772;2023-07-13T05:59:50;98108.50;;;23.29;65.01
56825;BME280;42705;50.326;18.772;2023-07-13T06:05:12;98098.61;;;23.43;64.86
56825;BME280;42705;50.326;18.772;2023-07-13T06:10:35;98098.73;;;23.61;64.97
56825;BME280;42705;50.326;18.772;2023-07-13T06:15:57;98102.48;;;23.78;64.69
56825;BME280;42705;50.326;18.772;2023-07-13T06:21:21;98097.52;;;23.91;64.17
56825;BME280;42705;50.326;18.772;2023-07-13T06:26:43;98103.36;;;23.95;63.43
56825;BME280;42705;50.326;18.772;2023-07-13T06:32:06;98103.89;;;23.97;63.05
56825;BME280;42705;50.326;18.772;2023-07-13T06:37:28;98108.75;;;23.99;62.53
56825;BME280;42705;50.326;18.772;2023-07-13T06:42:50;98116.91;;;24.02;62.17
56825;BME280;42705;50.326;18.772;2023-07-13T06:48:12;98125.40;;;24.06;62.01
56825;BME280;42705;50.326;18.772;2023-07-13T06:53:33;98129.21;;;24.07;61.41
56825;BME280;42705;50.326;18.772;2023-07-13T06:58:55;98137.72;;;24.03;61.19
56825;BME280;42705;50.326;18.772;2023-07-13T07:04:17;98143.95;;;23.92;60.77
56825;BME280;42705;50.326;18.772;2023-07-13T07:09:39;98159.05;;;23.80;60.73
56825;BME280;42705;50.326;18.772;2023-07-13T07:15:01;98170.80;;;23.72;60.96
56825;BME280;42705;50.326;18.772;2023-07-13T07:20:22;98169.38;;;23.64;61.16
56825;BME280;42705;50.326;18.772;2023-07-13T07:25:44;98172.06;;;23.58;61.08
56825;BME280;42705;50.326;18.772;2023-07-13T07:31:06;98183.63;;;23.51;61.00
56825;BME280;42705;50.326;18.772;2023-07-13T07:36:28;98188.94;;;23.43;61.56
56825;BME280;42705;50.326;18.772;2023-07-13T07:41:50;98199.05;;;23.28;62.00
56825;BME280;42705;50.326;18.772;2023-07-13T07:47:12;98201.80;;;23.22;62.59
56825;BME280;42705;50.326;18.772;2023-07-13T07:52:34;98196.48;;;23.18;62.60
56825;BME280;42705;50.326;18.772;2023-07-13T07:57:56;98189.14;;;23.15;62.63
56825;BME280;42705;50.326;18.772;2023-07-13T08:03:18;98187.90;;;23.17;62.60
56825;BME280;42705;50.326;18.772;2023-07-13T08:08:40;98190.25;;;23.25;62.48
56825;BME280;42705;50.326;18.772;2023-07-13T08:14:02;98176.48;;;23.50;62.23
56825;BME280;42705;50.326;18.772;2023-07-13T08:19:23;98173.48;;;23.80;62.09
56825;BME280;42705;50.326;18.772;2023-07-13T08:24:46;98166.91;;;24.14;61.76
56825;BME280;42705;50.326;18.772;2023-07-13T08:30:09;98165.73;;;24.46;61.22
56825;BME280;42705;50.326;18.772;2023-07-13T08:35:31;98170.18;;;24.66;60.83
56825;BME280;42705;50.326;18.772;2023-07-13T08:40:53;98178.42;;;24.71;60.51
56825;BME280;42705;50.326;18.772;2023-07-13T08:46:36;98186.55;;;24.51;60.10
56825;BME280;42705;50.326;18.772;2023-07-13T08:52:08;98188.39;;;24.33;60.00
56825;BME280;42705;50.326;18.772;2023-07-13T08:57:34;98189.08;;;24.25;60.00
56825;BME280;42705;50.326;18.772;2023-07-13T09:02:58;98199.83;;;24.17;60.18
56825;BME280;42705;50.326;18.772;2023-07-13T09:20:17;98227.89;;;23.24;59.22
56825;BME280;42705;50.326;18.772;2023-07-13T09:25:42;98237.52;;;22.98;59.26
56825;BME280;42705;50.326;18.772;2023-07-13T09:31:26;98260.43;;;22.62;59.21
56825;BME280;42705;50.326;18.772;2023-07-13T09:36:51;98309.47;;;22.13;58.82
56825;BME280;42705;50.326;18.772;2023-07-13T09:42:22;98324.73;;;21.45;58.84
56825;BME280;42705;50.326;18.772;2023-07-13T09:47:44;98332.89;;;20.85;59.73
56825;BME280;42705;50.326;18.772;2023-07-13T09:53:20;98300.85;;;20.34;61.07
56825;BME280;42705;50.326;18.772;2023-07-13T09:58:43;98297.48;;;19.86;62.32
56825;BME280;42705;50.326;18.772;2023-07-13T10:04:17;98295.60;;;19.54;63.43
56825;BME280;42705;50.326;18.772;2023-07-13T10:09:40;98293.15;;;19.34;64.36
56825;BME280;42705;50.326;18.772;2023-07-13T10:15:02;98292.98;;;19.16;65.16
56825;BME280;42705;50.326;18.772;2023-07-13T10:20:26;98293.34;;;19.02;65.66
56825;BME280;42705;50.326;18.772;2023-07-13T10:25:49;98296.59;;;18.92;66.14
56825;BME280;42705;50.326;18.772;2023-07-13T10:31:14;98299.61;;;18.85;66.49
56825;BME280;42705;50.326;18.772;2023-07-13T10:36:43;98303.09;;;18.85;66.98
56825;BME280;42705;50.326;18.772;2023-07-13T10:42:08;98299.09;;;18.85;67.30
56825;BME280;42705;50.326;18.772;2023-07-13T10:47:34;98289.39;;;18.79;67.63
56825;BME280;42705;50.326;18.772;2023-07-13T10:53:03;98288.74;;;18.80;67.90
56825;BME280;42705;50.326;18.772;2023-07-13T10:58:39;98298.85;;;18.94;68.13
56825;BME280;42705;50.326;18.772;2023-07-13T11:04:03;98304.15;;;19.09;68.30
56825;BME280;42705;50.326;18.772;2023-07-13T11:20:31;98313.05;;;19.83;68.38
56825;BME280;42705;50.326;18.772;2023-07-13T11:25:54;98327.15;;;20.08;68.06
56825;BME280;42705;50.326;18.772;2023-07-13T11:31:16;98332.61;;;20.29;67.76
56825;BME280;42705;50.326;18.772;2023-07-13T11:36:43;98340.73;;;20.51;67.46
56825;BME280;42705;50.326;18.772;2023-07-13T11:42:10;98347.71;;;20.67;66.96
56825;BME280;42705;50.326;18.772;2023-07-13T11:47:33;98352.73;;;20.85;66.74
56825;BME280;42705;50.326;18.772;2023-07-13T11:52:58;98361.77;;;21.09;66.58
56825;BME280;42705;50.326;18.772;2023-07-13T11:58:24;98358.44;;;21.34;66.32
56825;BME280;42705;50.326;18.772;2023-07-13T12:03:46;98369.52;;;21.56;65.65
56825;BME280;42705;50.326;18.772;2023-07-13T12:09:13;98375.05;;;21.81;65.22
56825;BME280;42705;50.326;18.772;2023-07-13T12:14:37;98374.27;;;22.01;64.92
56825;BME280;42705;50.326;18.772;2023-07-13T12:19:59;98377.55;;;22.10;64.14
56825;BME280;42705;50.326;18.772;2023-07-13T12:25:29;98388.41;;;22.03;63.88
56825;BME280;42705;50.326;18.772;2023-07-13T12:30:58;98386.73;;;22.06;63.40
56825;BME280;42705;50.326;18.772;2023-07-13T12:36:21;98385.58;;;22.29;62.82
56825;BME280;42705;50.326;18.772;2023-07-13T12:41:43;98389.81;;;22.65;62.31
56825;BME280;42705;50.326;18.772;2023-07-13T12:47:12;98384.48;;;22.91;61.79
56825;BME280;42705;50.326;18.772;2023-07-13T12:52:35;98379.77;;;23.03;61.53
56825;BME280;42705;50.326;18.772;2023-07-13T12:57:57;98369.42;;;23.16;60.95
56825;BME280;42705;50.326;18.772;2023-07-13T13:03:30;98370.91;;;23.36;60.38
56825;BME280;42705;50.326;18.772;2023-07-13T13:08:57;98381.08;;;23.42;60.04
56825;BME280;42705;50.326;18.772;2023-07-13T13:14:22;98387.17;;;23.11;59.80
56825;BME280;42705;50.326;18.772;2023-07-13T13:19:44;98391.98;;;22.90;60.02
56825;BME280;42705;50.326;18.772;2023-07-13T13:25:10;98401.05;;;22.80;59.92
56825;BME280;42705;50.326;18.772;2023-07-13T13:30:32;98400.17;;;23.22;59.21
56825;BME280;42705;50.326;18.772;2023-07-13T13:35:54;98402.38;;;23.55;59.06
56825;BME280;42705;50.326;18.772;2023-07-13T13:41:16;98399.55;;;23.19;58.96
56825;BME280;42705;50.326;18.772;2023-07-13T13:46:38;98399.35;;;23.11;59.00
56825;BME280;42705;50.326;18.772;2023-07-13T13:52:00;98404.95;;;23.10;59.08
56825;BME280;42705;50.326;18.772;2023-07-13T13:57:23;98411.23;;;23.31;58.93
56825;BME280;42705;50.326;18.772;2023-07-13T14:02:48;98417.33;;;23.40;58.48
56825;BME280;42705;50.326;18.772;2023-07-13T14:08:17;98421.05;;;23.30;58.26
56825;BME280;42705;50.326;18.772;2023-07-13T14:13:52;98426.45;;;23.26;58.01
56825;BME280;42705;50.326;18.772;2023-07-13T14:19:15;98424.78;;;23.43;57.50
56825;BME280;42705;50.326;18.772;2023-07-13T14:24:38;98411.98;;;24.01;56.82
56825;BME280;42705;50.326;18.772;2023-07-13T14:29:59;98403.71;;;25.04;56.01
56825;BME280;42705;50.326;18.772;2023-07-13T14:35:22;98398.73;;;26.97;53.03
56825;BME280;42705;50.326;18.772;2023-07-13T14:40:45;98392.43;;;28.55;51.10
56825;BME280;42705;50.326;18.772;2023-07-13T14:46:22;98383.27;;;28.56;49.98
56825;BME280;42705;50.326;18.772;2023-07-13T14:51:46;98381.88;;;28.49;48.79
56825;BME280;42705;50.326;18.772;2023-07-13T14:57:13;98378.67;;;28.10;48.63
56825;BME280;42705;50.326;18.772;2023-07-13T15:02:37;98381.50;;;28.33;48.19
56825;BME280;42705;50.326;18.772;2023-07-13T15:08:02;98389.59;;;28.07;48.18
56825;BME280;42705;50.326;18.772;2023-07-13T15:13:24;98394.29;;;27.94;48.23
56825;BME280;42705;50.326;18.772;2023-07-13T15:18:46;98398.23;;;28.54;47.91
56825;BME280;42705;50.326;18.772;2023-07-13T15:24:10;98386.70;;;28.46;47.41
56825;BME280;42705;50.326;18.772;2023-07-13T15:29:32;98371.56;;;29.19;46.22
56825;BME280;42705;50.326;18.772;2023-07-13T15:34:54;98362.21;;;29.42;45.70
56825;BME280;42705;50.326;18.772;2023-07-13T15:40:17;98375.44;;;29.48;45.20
56825;BME280;42705;50.326;18.772;2023-07-13T15:45:39;98365.19;;;29.78;44.80
56825;BME280;42705;50.326;18.772;2023-07-13T15:51:04;98371.27;;;30.62;43.30
56825;BME280;42705;50.326;18.772;2023-07-13T15:56:28;98381.73;;;30.69;42.64
56825;BME280;42705;50.326;18.772;2023-07-13T16:01:50;98373.73;;;31.05;41.84
56825;BME280;42705;50.326;18.772;2023-07-13T16:07:14;98377.09;;;31.01;41.53
56825;BME280;42705;50.326;18.772;2023-07-13T16:12:38;98365.95;;;31.73;40.17
56825;BME280;42705;50.326;18.772;2023-07-13T16:17:59;98372.68;;;32.39;38.85
56825;BME280;42705;50.326;18.772;2023-07-13T16:23:21;98380.95;;;33.00;37.90
56825;BME280;42705;50.326;18.772;2023-07-13T16:28:43;98375.51;;;33.63;37.11
56825;BME280;42705;50.326;18.772;2023-07-13T16:34:06;98365.56;;;34.29;36.53
56825;BME280;42705;50.326;18.772;2023-07-13T16:39:30;98376.16;;;34.63;35.59
56825;BME280;42705;50.326;18.772;2023-07-13T16:44:52;98379.84;;;34.58;34.66
56825;BME280;42705;50.326;18.772;2023-07-13T16:50:21;98390.33;;;33.93;34.53
56825;BME280;42705;50.326;18.772;2023-07-13T16:55:43;98388.73;;;33.12;34.73
56825;BME280;42705;50.326;18.772;2023-07-13T17:01:07;98376.36;;;32.35;35.13
56825;BME280;42705;50.326;18.772;2023-07-13T17:06:29;98381.69;;;31.60;35.63
56825;BME280;42705;50.326;18.772;2023-07-13T17:11:52;98400.13;;;31.20;36.22
56825;BME280;42705;50.326;18.772;2023-07-13T17:17:18;98400.80;;;31.13;36.33
56825;BME280;42705;50.326;18.772;2023-07-13T17:22:40;98393.08;;;31.06;36.46
56825;BME280;42705;50.326;18.772;2023-07-13T17:28:02;98401.77;;;30.98;36.33
56825;BME280;42705;50.326;18.772;2023-07-13T17:33:37;98410.75;;;30.82;36.07
56825;BME280;42705;50.326;18.772;2023-07-13T17:39:01;98416.13;;;30.62;36.16
56825;BME280;42705;50.326;18.772;2023-07-13T17:44:25;98416.56;;;30.46;36.71
56825;BME280;42705;50.326;18.772;2023-07-13T17:49:47;98416.96;;;30.30;36.91
56825;BME280;42705;50.326;18.772;2023-07-13T17:55:14;98423.60;;;30.11;37.27
56825;BME280;42705;50.326;18.772;2023-07-13T18:00:38;98424.85;;;29.86;37.54
56825;BME280;42705;50.326;18.772;2023-07-13T18:06:03;98425.50;;;29.60;37.51
56825;BME280;42705;50.326;18.772;2023-07-13T18:11:25;98425.80;;;29.26;38.09
56825;BME280;42705;50.326;18.772;2023-07-13T18:16:53;98424.48;;;28.79;38.97
56825;BME280;42705;50.326;18.772;2023-07-13T18:22:17;98428.51;;;28.13;39.44
56825;BME280;42705;50.326;18.772;2023-07-13T18:27:39;98430.94;;;27.55;40.70
56825;BME280;42705;50.326;18.772;2023-07-13T18:33:01;98436.05;;;27.00;41.57
56825;BME280;42705;50.326;18.772;2023-07-13T18:38:24;98442.45;;;26.46;42.29
56825;BME280;42705;50.326;18.772;2023-07-13T18:43:49;98449.88;;;25.97;43.43
56825;BME280;42705;50.326;18.772;2023-07-13T18:49:14;98455.85;;;25.52;44.36
56825;BME280;42705;50.326;18.772;2023-07-13T18:54:36;98471.39;;;25.13;45.15
56825;BME280;42705;50.326;18.772;2023-07-13T18:59:59;98475.31;;;24.80;45.68
56825;BME280;42705;50.326;18.772;2023-07-13T19:05:22;98471.00;;;24.50;46.18
56825;BME280;42705;50.326;18.772;2023-07-13T19:10:48;98464.71;;;24.17;46.21
56825;BME280;42705;50.326;18.772;2023-07-13T19:16:13;98473.48;;;23.82;45.91
56825;BME280;42705;50.326;18.772;2023-07-13T19:21:39;98481.42;;;23.52;46.18
56825;BME280;42705;50.326;18.772;2023-07-13T19:27:03;98481.27;;;23.16;46.44
56825;BME280;42705;50.326;18.772;2023-07-13T19:32:25;98477.57;;;22.79;46.96
56825;BME280;42705;50.326;18.772;2023-07-13T19:37:47;98474.73;;;22.51;47.88
56825;BME280;42705;50.326;18.772;2023-07-13T19:43:13;98482.45;;;22.36;49.10
56825;BME280;42705;50.326;18.772;2023-07-13T19:48:36;98488.52;;;22.15;49.71
56825;BME280;42705;50.326;18.772;2023-07-13T19:53:59;98490.04;;;22.02;50.71
56825;BME280;42705;50.326;18.772;2023-07-13T19:59:23;98489.55;;;21.87;51.21
56825;BME280;42705;50.326;18.772;2023-07-13T20:04:46;98497.83;;;21.76;51.61
56825;BME280;42705;50.326;18.772;2023-07-13T20:15:37;98505.83;;;21.35;52.44
56825;BME280;42705;50.326;18.772;2023-07-13T20:21:25;98509.52;;;21.10;53.34
56825;BME280;42705;50.326;18.772;2023-07-13T20:26:47;98519.23;;;20.89;53.98
56825;BME280;42705;50.326;18.772;2023-07-13T20:32:09;98518.02;;;20.72;54.78
56825;BME280;42705;50.326;18.772;2023-07-13T20:37:37;98520.02;;;20.57;55.58
56825;BME280;42705;50.326;18.772;2023-07-13T20:43:00;98522.88;;;20.42;56.31
56825;BME280;42705;50.326;18.772;2023-07-13T20:53:50;98525.04;;;20.07;57.79
56825;BME280;42705;50.326;18.772;2023-07-13T20:59:15;98531.00;;;20.06;58.38
56825;BME280;42705;50.326;18.772;2023-07-13T21:04:37;98537.70;;;20.00;58.83
56825;BME280;42705;50.326;18.772;2023-07-13T21:09:59;98536.75;;;19.89;59.35
56825;BME280;42705;50.326;18.772;2023-07-13T21:15:24;98536.06;;;19.88;59.79
56825;BME280;42705;50.326;18.772;2023-07-13T21:20:49;98537.45;;;19.87;60.19
56825;BME280;42705;50.326;18.772;2023-07-13T21:26:11;98545.20;;;19.93;60.58
56825;BME280;42705;50.326;18.772;2023-07-13T21:31:34;98559.20;;;19.93;60.59
56825;BME280;42705;50.326;18.772;2023-07-13T21:36:57;98555.53;;;19.84;60.75
56825;BME280;42705;50.326;18.772;2023-07-13T21:42:21;98557.03;;;19.76;60.94
56825;BME280;42705;50.326;18.772;2023-07-13T21:47:43;98552.98;;;19.69;61.43
56825;BME280;42705;50.326;18.772;2023-07-13T21:53:24;98542.05;;;19.63;61.67
56825;BME280;42705;50.326;18.772;2023-07-13T21:58:47;98545.80;;;19.67;61.89
56825;BME280;42705;50.326;18.772;2023-07-13T22:04:12;98550.77;;;19.63;61.95
56825;BME280;42705;50.326;18.772;2023-07-13T22:09:35;98547.17;;;19.59;62.09
56825;BME280;42705;50.326;18.772;2023-07-13T22:14:57;98545.48;;;19.52;62.36
56825;BME280;42705;50.326;18.772;2023-07-13T22:20:22;98550.58;;;19.51;62.48
56825;BME280;42705;50.326;18.772;2023-07-13T22:25:49;98551.77;;;19.46;62.70
56825;BME280;42705;50.326;18.772;2023-07-13T22:31:12;98552.76;;;19.34;63.07
56825;BME280;42705;50.326;18.772;2023-07-13T22:36:34;98556.39;;;19.28;63.45
56825;BME280;42705;50.326;18.772;2023-07-13T22:41:56;98559.37;;;19.32;63.78
56825;BME280;42705;50.326;18.772;2023-07-13T22:47:19;98560.84;;;19.32;63.82
56825;BME280;42705;50.326;18.772;2023-07-13T22:52:43;98560.65;;;19.16;64.02
56825;BME280;42705;50.326;18.772;2023-07-13T22:58:05;98561.52;;;19.18;64.41
56825;BME280;42705;50.326;18.772;2023-07-13T23:03:30;98561.29;;;19.27;64.69
56825;BME280;42705;50.326;18.772;2023-07-13T23:08:53;98568.86;;;19.34;64.76
56825;BME280;42705;50.326;18.772;2023-07-13T23:14:16;98580.70;;;19.38;64.58
56825;BME280;42705;50.326;18.772;2023-07-13T23:19:38;98585.25;;;19.29;64.57
56825;BME280;42705;50.326;18.772;2023-07-13T23:25:00;98589.52;;;19.19;64.69
56825;BME280;42705;50.326;18.772;2023-07-13T23:30:24;98577.19;;;19.06;64.69
56825;BME280;42705;50.326;18.772;2023-07-13T23:35:48;98572.09;;;19.00;64.94
56825;BME280;42705;50.326;18.772;2023-07-13T23:41:13;98588.52;;;18.95;65.14
56825;BME280;42705;50.326;18.772;2023-07-13T23:46:51;98588.53;;;18.88;65.43
56825;BME280;42705;50.326;18.772;2023-07-13T23:52:13;98579.16;;;18.91;65.70
56825;BME280;42705;50.326;18.772;2023-07-13T23:57:35;98568.99;;;18.97;66.07
